Terminal Aerodrome Forecast
Issued by NWS

Current Version | Previous Version | Text Only | Print | Product List | Glossary On
Versions: 1 2 3 4 5 6 7 8 9 10 11 12 13 14 15
000
FTUS45 KABQ 221800 AAA
TAFGUP
TAF AMD
KGUP 221900Z 2219/2318 24005KT P6SM VCSH SCT045 BKN060
     FM222100 27010G20KT P6SM SCT080
     FM230100 VRB05KT P6SM SCT080
     FM230800 VRB03KT P6SM SKC=

USA.gov is the U.S. government's official web portal to all federal, state and local government web resources and services.